createdAt,value
2022-10-08T00:01:19.364Z,100.00
2022-10-08T00:03:50.482Z,100.00
2022-10-08T00:06:20.162Z,100.00
2022-10-08T00:08:56.858Z,100.00
2022-10-08T00:11:30.675Z,100.00
2022-10-08T00:13:58.490Z,100.00
2022-10-08T00:16:27.266Z,100.00
2022-10-08T00:18:57.564Z,100.00
2022-10-08T00:21:32.506Z,99.96
2022-10-08T00:24:01.603Z,99.99
2022-10-08T00:26:32.304Z,98.74
2022-10-08T00:29:02.279Z,96.16
2022-10-08T00:31:32.488Z,96.19
2022-10-08T00:34:01.951Z,97.10
2022-10-08T00:36:31.864Z,98.18
2022-10-08T00:39:01.262Z,99.38
2022-10-08T00:41:31.114Z,99.47
2022-10-08T00:44:03.187Z,99.21
2022-10-08T00:46:56.532Z,98.70
2022-10-08T00:49:25.307Z,97.26
2022-10-08T00:51:55.849Z,98.54
2022-10-08T00:54:23.786Z,98.47
2022-10-08T00:56:53.609Z,98.77
2022-10-08T00:59:21.224Z,99.33
2022-10-08T01:01:48.671Z,100.00
2022-10-08T01:04:16.286Z,100.00
2022-10-08T01:06:46.355Z,100.00
2022-10-08T01:09:19.399Z,100.00
2022-10-08T01:12:05.223Z,99.31
2022-10-08T01:14:52.932Z,97.47
2022-10-08T01:17:30.608Z,98.17
2022-10-08T01:20:12.975Z,99.68
2022-10-08T01:22:52.312Z,100.00
2022-10-08T01:25:49.900Z,100.00
2022-10-08T01:28:21.361Z,100.00
2022-10-08T01:30:59.300Z,100.00
2022-10-08T01:33:51.009Z,100.00
2022-10-08T01:36:20.990Z,100.00
2022-10-08T01:38:56.181Z,100.00
2022-10-08T01:41:26.505Z,100.00
2022-10-08T01:44:03.456Z,100.00
2022-10-08T01:46:32.026Z,100.00
2022-10-08T01:49:07.536Z,100.00
2022-10-08T01:51:53.069Z,100.00
2022-10-08T01:54:23.706Z,100.00
2022-10-08T01:56:53.929Z,100.00
2022-10-08T01:59:23.011Z,100.00
2022-10-08T02:02:20.818Z,100.00
2022-10-08T02:04:49.923Z,100.00
2022-10-08T02:07:19.442Z,100.00
2022-10-08T02:10:02.824Z,100.00
2022-10-08T02:12:31.341Z,100.00
2022-10-08T02:14:59.366Z,100.00
2022-10-08T02:17:43.999Z,100.00
2022-10-08T02:20:34.042Z,100.00
2022-10-08T02:23:25.835Z,100.00
2022-10-08T02:26:00.406Z,100.00
2022-10-08T02:28:43.564Z,100.00
2022-10-08T02:31:29.556Z,100.00
2022-10-08T02:34:08.959Z,100.00
2022-10-08T02:36:41.484Z,100.00
2022-10-08T02:39:11.517Z,100.00
2022-10-08T02:41:50.297Z,100.00
2022-10-08T02:44:24.541Z,100.00
2022-10-08T02:46:57.962Z,100.00
2022-10-08T02:49:31.668Z,100.00
2022-10-08T02:52:02.287Z,100.00
2022-10-08T02:54:35.242Z,100.00
2022-10-08T02:57:13.993Z,100.00
2022-10-08T02:59:42.307Z,100.00
2022-10-08T03:02:12.616Z,100.00
2022-10-08T03:04:52.789Z,100.00
2022-10-08T03:07:23.068Z,100.00
2022-10-08T03:09:52.753Z,100.00
2022-10-08T03:12:20.150Z,100.00
2022-10-08T03:14:49.675Z,100.00
2022-10-08T03:17:23.825Z,100.00
2022-10-08T03:19:51.803Z,100.00
2022-10-08T03:22:19.537Z,100.00
2022-10-08T03:24:46.737Z,100.00
2022-10-08T03:27:14.115Z,100.00
2022-10-08T03:29:41.358Z,100.00
2022-10-08T03:32:08.665Z,100.00
2022-10-08T03:34:36.060Z,100.00
2022-10-08T03:37:03.858Z,100.00
2022-10-08T03:39:31.107Z,100.00
2022-10-08T03:41:58.511Z,100.00
2022-10-08T03:44:25.737Z,100.00
2022-10-08T03:46:52.943Z,100.00
2022-10-08T03:49:20.281Z,100.00
2022-10-08T03:51:47.453Z,100.00
2022-10-08T03:54:14.686Z,100.00
2022-10-08T03:56:42.056Z,100.00
2022-10-08T03:59:09.589Z,100.00
2022-10-08T04:01:36.984Z,100.00
2022-10-08T04:04:04.385Z,100.00
2022-10-08T04:06:31.578Z,100.00
2022-10-08T04:09:01.285Z,100.00
2022-10-08T04:11:29.543Z,100.00
2022-10-08T04:13:56.862Z,100.00
2022-10-08T04:16:23.992Z,100.00
2022-10-08T04:18:51.344Z,100.00
2022-10-08T04:21:19.496Z,100.00
2022-10-08T04:23:49.310Z,100.00
2022-10-08T04:26:17.715Z,100.00
2022-10-08T04:28:45.795Z,100.00
2022-10-08T04:31:21.902Z,100.00
2022-10-08T04:33:51.637Z,100.00
2022-10-08T04:36:21.652Z,100.00
2022-10-08T04:38:49.454Z,100.00
2022-10-08T04:41:19.864Z,100.00
2022-10-08T04:43:47.565Z,100.00
2022-10-08T04:46:17.234Z,100.00
2022-10-08T04:48:51.040Z,100.00
2022-10-08T04:51:19.710Z,100.00
2022-10-08T04:53:47.312Z,100.00
2022-10-08T04:56:17.214Z,100.00
2022-10-08T04:58:45.540Z,100.00
2022-10-08T05:01:15.163Z,100.00
2022-10-08T05:03:44.960Z,100.00
2022-10-08T05:06:12.804Z,100.00
2022-10-08T05:08:40.388Z,100.00
2022-10-08T05:11:07.812Z,100.00
2022-10-08T05:13:35.719Z,100.00
2022-10-08T05:16:04.872Z,100.00
2022-10-08T05:18:33.728Z,100.00
2022-10-08T05:21:10.523Z,100.00
2022-10-08T05:23:38.767Z,100.00
2022-10-08T05:26:17.890Z,100.00
2022-10-08T05:28:49.319Z,99.37
2022-10-08T05:31:17.478Z,97.48
2022-10-08T05:33:45.227Z,96.36
2022-10-08T05:36:21.070Z,94.19
2022-10-08T05:38:49.004Z,91.83
2022-10-08T05:41:22.482Z,89.97
2022-10-08T05:43:50.176Z,87.94
2022-10-08T05:46:18.163Z,87.15
2022-10-08T05:48:45.530Z,84.55
2022-10-08T05:51:15.568Z,82.96
2022-10-08T05:53:45.206Z,82.44
2022-10-08T05:56:14.073Z,80.84
2022-10-08T05:58:42.345Z,79.20
2022-10-08T06:01:26.359Z,77.05
2022-10-08T06:04:07.220Z,78.26
2022-10-08T06:06:36.638Z,81.88
2022-10-08T06:09:04.988Z,82.35
2022-10-08T06:11:33.671Z,83.56
2022-10-08T06:14:01.887Z,82.06
2022-10-08T06:16:30.478Z,79.32
2022-10-08T06:18:58.391Z,74.76
2022-10-08T06:21:27.229Z,67.58
2022-10-08T06:23:57.351Z,59.91
2022-10-08T06:26:31.622Z,55.42
2022-10-08T06:29:01.953Z,51.78
2022-10-08T06:31:29.232Z,49.04
2022-10-08T06:33:59.646Z,50.41
2022-10-08T06:36:28.932Z,52.91
2022-10-08T06:38:58.483Z,56.57
2022-10-08T06:41:27.350Z,61.42
2022-10-08T06:43:55.778Z,63.99
2022-10-08T06:46:23.116Z,64.84
2022-10-08T06:48:50.300Z,65.57
2022-10-08T06:51:19.473Z,65.60
2022-10-08T06:53:52.966Z,65.33
2022-10-08T06:56:21.084Z,66.35
2022-10-08T06:58:48.392Z,66.32
2022-10-08T07:01:27.957Z,66.29
2022-10-08T07:04:00.894Z,64.75
2022-10-08T07:06:29.000Z,62.47
2022-10-08T07:08:58.487Z,61.41
2022-10-08T07:11:26.976Z,60.52
2022-10-08T07:13:55.703Z,59.61
2022-10-08T07:16:25.702Z,53.91
2022-10-08T07:18:54.404Z,51.74
2022-10-08T07:21:22.602Z,51.76
2022-10-08T07:23:50.777Z,50.03
2022-10-08T07:26:20.798Z,48.40
2022-10-08T07:29:00.548Z,48.74
2022-10-08T07:31:33.006Z,48.28
2022-10-08T07:34:02.361Z,50.36
2022-10-08T07:36:30.695Z,51.95
2022-10-08T07:39:00.075Z,51.71
2022-10-08T07:41:29.940Z,48.70
2022-10-08T07:43:59.793Z,45.69
2022-10-08T07:46:32.437Z,46.59
2022-10-08T07:49:01.595Z,50.76
2022-10-08T07:51:31.591Z,52.38
2022-10-08T07:54:04.364Z,50.22
2022-10-08T07:56:33.173Z,44.42
2022-10-08T07:59:01.735Z,39.43
2022-10-08T08:01:30.556Z,36.81
2022-10-08T08:04:03.755Z,35.23
2022-10-08T08:06:32.923Z,32.19
2022-10-08T08:09:01.435Z,31.05
2022-10-08T08:11:29.665Z,32.52
2022-10-08T08:13:57.277Z,36.35
2022-10-08T08:16:27.217Z,37.23
2022-10-08T08:18:56.751Z,39.73
2022-10-08T08:21:26.867Z,42.25
2022-10-08T08:23:56.581Z,44.10
2022-10-08T08:26:35.852Z,47.18
2022-10-08T08:29:06.674Z,47.05
2022-10-08T08:31:37.378Z,46.77
2022-10-08T08:34:08.099Z,46.01
2022-10-08T08:36:37.834Z,45.14
2022-10-08T08:39:06.826Z,44.14
2022-10-08T08:41:33.984Z,43.53
2022-10-08T08:44:22.711Z,42.98
2022-10-08T08:47:06.155Z,42.67
2022-10-08T08:49:42.325Z,42.13
2022-10-08T08:52:13.431Z,43.13
2022-10-08T08:54:40.864Z,44.97
2022-10-08T08:57:44.272Z,45.79
2022-10-08T09:00:22.287Z,47.03
2022-10-08T09:03:01.110Z,47.71
2022-10-08T09:05:33.693Z,48.86
2022-10-08T09:08:11.801Z,50.45
2022-10-08T09:11:12.640Z,52.24
2022-10-08T09:13:44.767Z,53.49
2022-10-08T09:16:13.670Z,55.94
2022-10-08T09:18:51.900Z,57.17
2022-10-08T09:21:20.795Z,59.38
2022-10-08T09:23:48.223Z,57.63
2022-10-08T09:26:22.158Z,57.82
2022-10-08T09:28:52.507Z,57.02
2022-10-08T09:31:29.697Z,56.35
2022-10-08T09:34:18.800Z,56.08
2022-10-08T09:36:50.431Z,54.21
2022-10-08T09:39:25.286Z,50.18
2022-10-08T09:42:07.645Z,44.12
2022-10-08T09:44:47.155Z,42.39
2022-10-08T09:47:20.528Z,39.30
2022-10-08T09:50:19.204Z,40.29
2022-10-08T09:52:49.886Z,42.67
2022-10-08T09:55:22.573Z,42.91
2022-10-08T09:58:00.625Z,42.41
2022-10-08T10:00:35.560Z,40.95
2022-10-08T10:03:05.726Z,43.35
2022-10-08T10:05:36.428Z,43.27
2022-10-08T10:08:04.802Z,43.32
2022-10-08T10:10:41.849Z,45.75
2022-10-08T10:13:19.477Z,45.03
2022-10-08T10:16:00.120Z,44.88
2022-10-08T10:18:48.247Z,44.66
2022-10-08T10:21:22.484Z,47.22
2022-10-08T10:24:04.036Z,48.96
2022-10-08T10:26:38.318Z,52.57
2022-10-08T10:29:31.332Z,51.98
2022-10-08T10:32:16.926Z,52.65
2022-10-08T10:35:12.987Z,53.08
2022-10-08T10:37:47.803Z,55.61
2022-10-08T10:40:35.429Z,55.58
2022-10-08T10:43:16.581Z,54.53
2022-10-08T10:45:50.783Z,51.58
2022-10-08T10:48:18.018Z,50.54
2022-10-08T10:50:51.373Z,51.60
2022-10-08T10:53:58.165Z,48.89
2022-10-08T10:56:29.597Z,49.14
2022-10-08T10:58:56.720Z,51.21
2022-10-08T11:01:23.841Z,51.06
2022-10-08T11:04:03.399Z,51.75
2022-10-08T11:06:58.570Z,52.93
2022-10-08T11:09:44.681Z,53.73
2022-10-08T11:12:11.764Z,53.64
2022-10-08T11:14:39.148Z,54.38
2022-10-08T11:17:30.103Z,54.83
2022-10-08T11:20:11.177Z,55.71
2022-10-08T11:22:40.866Z,55.34
2022-10-08T11:25:44.671Z,55.08
2022-10-08T11:28:47.502Z,54.72
2022-10-08T11:31:27.272Z,55.42
2022-10-08T11:33:56.141Z,56.06
2022-10-08T11:36:35.640Z,56.14
2022-10-08T11:39:14.277Z,56.24
2022-10-08T11:41:47.812Z,56.02
2022-10-08T11:44:16.850Z,57.05
2022-10-08T11:46:45.136Z,57.94
2022-10-08T11:49:12.215Z,57.85
2022-10-08T11:52:12.931Z,57.93
2022-10-08T11:54:41.986Z,56.87
2022-10-08T11:57:20.344Z,58.24
2022-10-08T12:00:06.923Z,58.67
2022-10-08T12:02:43.280Z,58.27
2022-10-08T12:05:33.619Z,58.30
2022-10-08T12:08:06.308Z,57.84
2022-10-08T12:10:41.279Z,57.61
2022-10-08T12:13:15.430Z,58.54
2022-10-08T12:15:45.117Z,58.56
2022-10-08T12:18:26.045Z,58.61
2022-10-08T12:21:29.448Z,58.29
2022-10-08T12:23:56.571Z,58.84
2022-10-08T12:26:23.983Z,59.00
2022-10-08T12:28:51.181Z,59.27
2022-10-08T12:31:39.494Z,59.80
2022-10-08T12:34:14.633Z,59.66
2022-10-08T12:36:48.614Z,60.59
2022-10-08T12:39:31.318Z,61.08
2022-10-08T12:42:17.407Z,61.16
2022-10-08T12:44:47.425Z,61.13
2022-10-08T12:47:52.187Z,60.78
2022-10-08T12:50:32.923Z,60.99
2022-10-08T12:53:02.020Z,60.45
2022-10-08T12:55:34.411Z,60.54
2022-10-08T12:58:05.219Z,60.11
2022-10-08T13:00:34.862Z,60.81
2022-10-08T13:03:18.263Z,61.05
2022-10-08T13:05:47.702Z,60.78
2022-10-08T13:08:30.474Z,60.35
2022-10-08T13:11:00.438Z,60.49
2022-10-08T13:13:51.827Z,61.70
2022-10-08T13:16:24.631Z,61.33
2022-10-08T13:18:54.169Z,61.55
2022-10-08T13:21:36.693Z,61.78
2022-10-08T13:24:13.444Z,61.91
2022-10-08T13:26:45.262Z,61.97
2022-10-08T13:29:21.473Z,61.97
2022-10-08T13:32:05.654Z,62.59
2022-10-08T13:34:49.340Z,63.31
2022-10-08T13:37:22.656Z,64.04
2022-10-08T13:39:58.754Z,63.19
2022-10-08T13:42:33.364Z,63.33
2022-10-08T13:45:02.926Z,64.18
2022-10-08T13:47:31.169Z,65.15
2022-10-08T13:50:02.119Z,63.16
2022-10-08T13:52:32.480Z,63.74
2022-10-08T13:55:02.090Z,63.80
2022-10-08T13:57:29.497Z,64.52
2022-10-08T13:59:56.676Z,64.96
2022-10-08T14:02:24.425Z,65.01
2022-10-08T14:04:52.916Z,66.41
2022-10-08T14:07:28.643Z,67.26
2022-10-08T14:09:59.452Z,67.12
2022-10-08T14:12:30.838Z,67.13
2022-10-08T14:14:58.662Z,67.09
2022-10-08T14:17:25.813Z,68.23
2022-10-08T14:19:55.476Z,69.44
2022-10-08T14:22:23.373Z,70.15
2022-10-08T14:24:50.983Z,71.92
2022-10-08T14:27:18.644Z,72.28
2022-10-08T14:29:46.106Z,71.80
2022-10-08T14:32:14.336Z,71.68
2022-10-08T14:34:41.530Z,71.62
2022-10-08T14:37:10.651Z,70.85
2022-10-08T14:39:37.795Z,71.83
2022-10-08T14:42:04.951Z,72.42
2022-10-08T14:44:32.330Z,73.79
2022-10-08T14:46:59.529Z,73.74
2022-10-08T14:49:26.723Z,74.76
2022-10-08T14:51:54.095Z,73.31
2022-10-08T14:54:21.346Z,74.68
2022-10-08T14:56:48.625Z,75.88
2022-10-08T14:59:15.999Z,76.92
2022-10-08T15:01:43.263Z,78.26
2022-10-08T15:04:13.680Z,76.96
2022-10-08T15:06:41.911Z,79.23
2022-10-08T15:09:11.376Z,79.45
2022-10-08T15:11:38.921Z,80.20
2022-10-08T15:14:06.722Z,83.19
2022-10-08T15:16:34.488Z,83.99
2022-10-08T15:19:02.123Z,85.54
2022-10-08T15:21:29.557Z,88.22
2022-10-08T15:23:59.829Z,90.55
2022-10-08T15:26:27.141Z,93.30
2022-10-08T15:28:54.930Z,96.68
2022-10-08T15:31:29.479Z,98.04
2022-10-08T15:33:58.701Z,100.00
2022-10-08T15:36:36.298Z,100.00
2022-10-08T15:39:13.188Z,100.00
2022-10-08T15:41:42.781Z,100.00
2022-10-08T15:44:29.088Z,100.00
2022-10-08T15:47:06.199Z,100.00
2022-10-08T15:49:37.341Z,100.00
2022-10-08T15:52:10.733Z,100.00
2022-10-08T15:54:39.177Z,100.00
2022-10-08T15:57:07.427Z,100.00
2022-10-08T15:59:34.638Z,100.00
2022-10-08T16:02:02.642Z,100.00
2022-10-08T16:04:29.858Z,100.00
2022-10-08T16:06:57.184Z,100.00
2022-10-08T16:09:24.862Z,100.00
2022-10-08T16:11:52.238Z,100.00
2022-10-08T16:14:22.195Z,100.00
2022-10-08T16:16:50.670Z,100.00
2022-10-08T16:19:21.916Z,100.00
2022-10-08T16:21:51.953Z,100.00
2022-10-08T16:24:19.744Z,100.00
2022-10-08T16:26:48.723Z,100.00
2022-10-08T16:29:17.953Z,100.00
2022-10-08T16:31:46.580Z,100.00
2022-10-08T16:34:22.162Z,100.00
2022-10-08T16:36:51.156Z,100.00
2022-10-08T16:39:21.282Z,100.00
2022-10-08T16:41:49.161Z,100.00
2022-10-08T16:44:19.034Z,100.00
2022-10-08T16:46:50.528Z,100.00
2022-10-08T16:49:27.221Z,100.00
2022-10-08T16:52:01.653Z,100.00
2022-10-08T16:54:29.120Z,100.00
2022-10-08T16:56:57.162Z,100.00
2022-10-08T16:59:26.690Z,100.00
2022-10-08T17:01:56.825Z,100.00
2022-10-08T17:04:25.999Z,100.00
2022-10-08T17:06:53.590Z,100.00
2022-10-08T17:09:21.305Z,100.00
2022-10-08T17:11:48.644Z,100.00
2022-10-08T17:14:16.311Z,100.00
2022-10-08T17:16:45.804Z,100.00
2022-10-08T17:19:13.723Z,100.00
2022-10-08T17:21:41.629Z,100.00
2022-10-08T17:24:11.424Z,100.00
2022-10-08T17:26:38.995Z,100.00
2022-10-08T17:29:09.116Z,100.00
2022-10-08T17:31:37.507Z,100.00
2022-10-08T17:34:05.337Z,100.00
2022-10-08T17:36:35.753Z,100.00
2022-10-08T17:39:06.256Z,100.00
2022-10-08T17:41:36.336Z,100.00
2022-10-08T17:44:05.727Z,100.00
2022-10-08T17:46:36.435Z,100.00
2022-10-08T17:49:04.768Z,100.00
2022-10-08T17:51:32.266Z,100.00
2022-10-08T17:54:02.516Z,100.00
2022-10-08T17:56:30.505Z,100.00
2022-10-08T17:58:58.465Z,100.00
2022-10-08T18:01:28.608Z,100.00
2022-10-08T18:03:58.021Z,100.00
2022-10-08T18:06:26.188Z,100.00
2022-10-08T18:09:05.402Z,100.00
2022-10-08T18:11:35.178Z,100.00
2022-10-08T18:14:03.643Z,100.00
2022-10-08T18:16:30.940Z,100.00
2022-10-08T18:18:58.106Z,100.00
2022-10-08T18:21:26.030Z,100.00
2022-10-08T18:23:53.259Z,100.00
2022-10-08T18:26:30.816Z,100.00
2022-10-08T18:29:00.669Z,100.00
2022-10-08T18:31:31.615Z,100.00
2022-10-08T18:34:01.691Z,100.00
2022-10-08T18:36:31.654Z,100.00
2022-10-08T18:39:01.676Z,100.00
2022-10-08T18:41:31.646Z,100.00
2022-10-08T18:44:04.495Z,100.00
2022-10-08T18:46:33.997Z,100.00
2022-10-08T18:49:01.558Z,100.00
2022-10-08T18:51:30.224Z,100.00
2022-10-08T18:53:59.471Z,100.00
2022-10-08T18:56:34.437Z,100.00
2022-10-08T18:59:05.034Z,100.00
2022-10-08T19:01:34.959Z,100.00
2022-10-08T19:04:04.416Z,100.00
2022-10-08T19:06:34.113Z,100.00
2022-10-08T19:09:03.300Z,100.00
2022-10-08T19:11:37.720Z,100.00
2022-10-08T19:14:10.761Z,100.00
2022-10-08T19:16:39.898Z,100.00
2022-10-08T19:19:17.560Z,100.00
2022-10-08T19:21:45.211Z,100.00
2022-10-08T19:24:18.714Z,100.00
2022-10-08T19:26:47.182Z,100.00
2022-10-08T19:29:29.207Z,100.00
2022-10-08T19:31:56.720Z,100.00
2022-10-08T19:34:26.090Z,100.00
2022-10-08T19:36:53.405Z,100.00
2022-10-08T19:39:24.401Z,100.00
2022-10-08T19:41:52.148Z,100.00
2022-10-08T19:44:20.650Z,100.00
2022-10-08T19:46:48.434Z,100.00
2022-10-08T19:49:16.174Z,100.00
2022-10-08T19:51:44.572Z,100.00
2022-10-08T19:54:12.329Z,100.00
2022-10-08T19:56:39.813Z,100.00
2022-10-08T19:59:07.172Z,100.00
2022-10-08T20:01:36.960Z,100.00
2022-10-08T20:04:06.114Z,100.00
2022-10-08T20:06:38.743Z,100.00
2022-10-08T20:09:07.346Z,100.00
2022-10-08T20:11:34.758Z,100.00
2022-10-08T20:14:02.056Z,100.00
2022-10-08T20:16:36.170Z,100.00
2022-10-08T20:19:12.691Z,100.00
2022-10-08T20:21:40.447Z,100.00
2022-10-08T20:24:08.084Z,100.00
2022-10-08T20:26:38.049Z,100.00
2022-10-08T20:29:10.855Z,100.00
2022-10-08T20:31:43.681Z,100.00
2022-10-08T20:34:17.848Z,100.00
2022-10-08T20:36:46.329Z,100.00
2022-10-08T20:39:15.801Z,100.00
2022-10-08T20:41:43.773Z,100.00
2022-10-08T20:44:11.283Z,100.00
2022-10-08T20:46:39.093Z,100.00
2022-10-08T20:49:07.039Z,100.00
2022-10-08T20:51:34.535Z,100.00
2022-10-08T20:54:05.103Z,100.00
2022-10-08T20:56:39.228Z,100.00
2022-10-08T20:59:08.719Z,100.00
2022-10-08T21:01:38.451Z,100.00
2022-10-08T21:04:06.678Z,100.00
2022-10-08T21:06:41.134Z,100.00
2022-10-08T21:09:08.623Z,100.00
2022-10-08T21:11:37.074Z,100.00
2022-10-08T21:14:05.671Z,100.00
2022-10-08T21:16:36.046Z,100.00
2022-10-08T21:19:05.915Z,100.00
2022-10-08T21:21:34.166Z,100.00
2022-10-08T21:24:01.390Z,100.00
2022-10-08T21:26:35.056Z,100.00
2022-10-08T21:29:05.114Z,100.00
2022-10-08T21:31:34.718Z,100.00
2022-10-08T21:34:02.364Z,100.00
2022-10-08T21:36:32.053Z,100.00
2022-10-08T21:39:01.198Z,100.00
2022-10-08T21:41:30.967Z,100.00
2022-10-08T21:44:00.941Z,100.00
2022-10-08T21:46:34.484Z,100.00
2022-10-08T21:49:08.224Z,100.00
2022-10-08T21:51:36.024Z,100.00
2022-10-08T21:54:05.115Z,100.00
2022-10-08T21:56:36.016Z,100.00
2022-10-08T21:59:05.650Z,100.00
2022-10-08T22:01:38.520Z,100.00
2022-10-08T22:04:11.763Z,100.00
2022-10-08T22:06:43.125Z,100.00
2022-10-08T22:09:14.438Z,100.00
2022-10-08T22:11:41.802Z,100.00
2022-10-08T22:14:09.814Z,100.00
2022-10-08T22:16:37.284Z,100.00
2022-10-08T22:19:05.255Z,100.00
2022-10-08T22:21:32.928Z,100.00
2022-10-08T22:24:00.655Z,100.00
2022-10-08T22:26:36.145Z,100.00
2022-10-08T22:29:05.014Z,100.00
2022-10-08T22:31:33.550Z,100.00
2022-10-08T22:34:01.320Z,100.00
2022-10-08T22:36:32.068Z,100.00
2022-10-08T22:39:00.101Z,100.00
2022-10-08T22:41:31.103Z,100.00
2022-10-08T22:43:59.497Z,100.00
2022-10-08T22:46:31.230Z,100.00
2022-10-08T22:49:02.821Z,100.00
2022-10-08T22:51:30.844Z,100.00
2022-10-08T22:53:58.444Z,100.00
2022-10-08T22:56:29.716Z,100.00
2022-10-08T22:58:59.509Z,100.00
2022-10-08T23:01:28.545Z,100.00
2022-10-08T23:03:56.308Z,100.00
2022-10-08T23:06:29.355Z,100.00
2022-10-08T23:08:58.866Z,100.00
2022-10-08T23:11:26.995Z,100.00
2022-10-08T23:13:56.733Z,100.00
2022-10-08T23:16:25.498Z,100.00
2022-10-08T23:18:59.760Z,100.00
2022-10-08T23:21:27.874Z,100.00
2022-10-08T23:23:55.996Z,100.00
2022-10-08T23:26:24.578Z,100.00
2022-10-08T23:28:54.819Z,100.00
2022-10-08T23:31:25.414Z,100.00
2022-10-08T23:33:54.224Z,100.00
2022-10-08T23:36:27.308Z,100.00
2022-10-08T23:38:56.553Z,100.00
2022-10-08T23:41:24.497Z,100.00
2022-10-08T23:43:52.886Z,100.00
2022-10-08T23:46:22.853Z,100.00
2022-10-08T23:48:50.866Z,100.00
2022-10-08T23:51:20.425Z,100.00
2022-10-08T23:53:51.081Z,100.00
2022-10-08T23:56:19.466Z,100.00
2022-10-08T23:58:47.028Z,100.00
